KSUX

Sioux Gateway / Col Bud Day Field Airport

Sioux City, Iowa, USA
METAR KSUX 191752Z 13016G23KT 10SM FEW080 24/20 A2988 RMK AO2 SLP114 T02440200 10250 20183 58016
Observed Flight Rules
Sep-19 @ 17:52 UTC (54 minutes ago) Visual Flight Rules
Wind Visibility Clouds
130° at 16 knots
 Gusting to 23 knots
10 miles
  • Few at 8,000' AGL
Temperatures Readings
Current 24°C / 75°F
Dewpoint 20°C / 68°F
Humidity 78%
Altimeter 29.88" Hg
Pressure 1011.4 hPa
Elevation 338
METAR KSUX 191752Z 13016G23KT 10SM FEW080 24/20 A2988 RMK AO2 SLP114 T02440200 10250 20183 58016
Observed Flight Rules
Sep-19 @ 17:52 UTC
(54 minutes ago)
VFR
Wind Visibility
130° at 16 knots
 Gusting to 23 knots
10 miles
Clouds
  • Few at 8,000' AGL
Temperature Dewpoint
24°C / 75°F 20°C / 68°F
Humidity Altimeter Pressure
78% 29.88" Hg 1011.4 hPa